Latest Weather Observations for Coondewanna

IDW60801

Issued at 9:35 pm WST Thursday 18 September 2014 (issued every 30 minutes, with the page automatically refreshed every 10 minutes)

About weather observations | Map of weather stations | Latest weather observations for WA | Other Formats
Station Details ID: 505051 Name: COONDEWANNA Lat: -22.96 Lon: 118.81 Height: 697.63 m
Data from the previous 72 hours. | See also: Recent months for locations in Western Australia
Date/Time
WST
Temp
°C
App
Temp
°C
Dew
Point
Rel
Hum
%
Delta-T
°C
Wind Press
QNH
hPa
Press
MSL
hPa
Rain
since 9 am
mm
Dir
 
Spd
km/h
Gust
km/h
Spd
kts
Gust
kts
18/09:30pm 21.9 17.9 -2.0 20 10.7 SW 9 13 5 7 1019.5 1016.3 -
18/09:00pm 21.9 17.8 -2.7 19 10.9 WSW 9 13 5 7 1019.4 1016.1 -
18/08:30pm 21.1 18.4 -2.7 20 10.5 W 2 6 1 3 1019.2 1015.9 -
18/08:00pm 22.1 18.4 -3.3 18 11.1 W 7 9 4 5 1018.9 1015.6 -
18/07:30pm 22.7 18.8 -4.4 16 11.7 W 7 9 4 5 1018.4 1015.1 -
18/07:00pm 25.0 20.8 -4.3 14 12.9 WNW 9 9 5 5 1017.8 1014.5 -
18/06:30pm 26.6 21.9 -5.1 12 13.9 WNW 11 13 6 7 1017.4 1014.1 -
18/06:00pm 28.1 23.0 -5.1 11 14.8 WNW 13 20 7 11 1016.9 1013.5 -
18/05:30pm 29.3 23.5 -4.2 11 15.3 W 17 22 9 12 1016.5 1013.2 -
18/05:00pm 30.0 24.6 -4.9 10 15.8 NW 15 22 8 12 1016.2 1012.9 -
18/04:30pm 30.5 24.2 -5.9 9 16.3 NW 19 32 10 17 1016.0 1012.7 -
18/04:00pm 30.8 24.5 -5.7 9 16.4 NNW 19 30 10 16 1015.8 1012.5 -
18/03:30pm 31.2 24.9 -4.0 10 16.4 WNW 20 30 11 16 1016.0 1012.7 -
18/03:00pm 31.1 25.7 -4.1 10 16.3 W 15 24 8 13 1016.1 1012.8 0.0
18/02:30pm 31.2 25.3 -5.4 9 16.6 WNW 17 28 9 15 1016.3 1013.0 0.0
18/02:00pm 31.0 23.4 -5.5 9 16.5 NW 26 39 14 21 1016.5 1013.2 0.0
18/01:30pm 31.2 25.7 -5.4 9 16.6 NW 15 24 8 13 1016.8 1013.4 0.0
18/01:00pm 30.6 24.1 -5.8 9 16.3 WNW 20 32 11 17 1017.2 1013.9 0.0
18/12:30pm 30.6 22.2 -5.8 9 16.3 NNW 30 39 16 21 1017.7 1014.4 0.0
18/12:00pm 30.3 23.9 -4.7 10 16.0 N 20 44 11 24 1018.1 1014.8 0.0
18/11:30am 29.0 23.4 -3.2 12 14.9 W 17 30 9 16 1018.7 1015.4 0.0
18/11:00am 29.5 23.2 -4.0 11 15.4 WNW 20 33 11 18 1019.1 1015.8 0.0
18/10:30am 28.2 21.0 -5.0 11 14.8 NW 24 35 13 19 1019.5 1016.3 0.0
18/10:00am 27.7 20.7 -3.2 13 14.2 WNW 24 39 13 21 1019.8 1016.5 0.0
18/09:30am 27.2 21.8 -1.7 15 13.6 WNW 17 28 9 15 1019.9 1016.6 0.0
18/09:00am 25.0 22.4 4.2 26 10.7 W 7 13 4 7 1020.1 1016.8 -
18/08:30am 23.2 20.8 4.2 29 9.7 W 6 7 3 4 1020.2 1016.9 -
18/08:00am 21.7 20.1 2.4 28 9.4 CALM 0 0 0 0 1020.0 1016.7 -
18/07:30am 20.0 17.3 2.4 31 8.5 E 6 7 3 4 1019.8 1016.5 -
18/07:00am 17.4 14.4 2.2 36 7.1 E 7 9 4 5 1019.4 1016.1 -
18/06:30am 14.6 11.1 1.5 41 5.9 E 9 13 5 7 1019.1 1015.8 -
18/06:00am 12.5 10.2 0.6 44 5.2 WSW 2 7 1 4 1018.7 1015.4 -
18/05:30am 12.7 10.8 0.5 43 5.3 CALM 0 0 0 0 1018.5 1015.2 -
18/05:00am 14.8 11.3 1.3 40 6.1 WSW 9 11 5 6 1018.5 1015.2 -
18/04:30am 13.9 10.5 -0.5 37 6.2 WSW 7 7 4 4 1018.3 1015.0 -
18/04:00am 15.6 12.3 0.2 35 6.8 WSW 7 7 4 4 1018.1 1014.8 -
18/03:30am 15.5 13.7 0.9 37 6.6 CALM 0 0 0 0 1018.1 1014.8 -
18/03:00am 15.7 13.8 0.3 35 6.8 CALM 0 0 0 0 1017.9 1014.6 0.0
18/02:30am 16.4 14.5 0.5 34 7.2 CALM 0 0 0 0 1017.9 1014.6 -
18/02:00am 16.5 14.6 0.6 34 7.2 CALM 0 0 0 0 1017.9 1014.6 -
18/01:30am 16.4 14.4 -0.3 32 7.4 CALM 0 4 0 2 1017.9 1014.6 -
18/01:00am 17.8 14.7 0.0 30 8.0 WSW 6 6 3 3 1018.1 1014.8 -
18/12:30am 17.6 14.4 -0.6 29 8.1 WSW 6 7 3 4 1018.3 1015.0 -
18/12:00am 19.1 15.7 -0.8 26 8.9 WSW 7 9 4 5 1018.6 1015.3 -
 
Date/Time
WST
Temp
°C
App
Temp
°C
Dew
Point
Rel
Hum
%
Delta-T
°C
Wind Press
QNH
hPa
Press
MSL
hPa
Rain
since 9 am
mm
Dir
 
Spd
km/h
Gust
km/h
Spd
kts
Gust
kts
17/11:30pm 19.8 15.9 -1.3 24 9.4 W 9 11 5 6 1018.7 1015.4 -
17/11:00pm 21.2 17.2 -2.0 21 10.3 WNW 9 11 5 6 1018.7 1015.4 -
17/10:30pm 22.7 18.7 -2.1 19 11.2 NW 9 13 5 7 1018.7 1015.4 -
17/10:00pm 24.5 18.7 -1.3 18 11.9 WSW 19 24 10 13 1018.6 1015.3 -
17/09:30pm 21.6 18.0 -2.3 20 10.6 ENE 7 17 4 9 1018.4 1015.1 -
17/09:00pm 22.6 19.0 -2.2 19 11.1 NW 7 7 4 4 1018.0 1014.7 0.0
17/08:30pm 24.1 20.1 -2.4 17 12.0 NNW 9 11 5 6 1017.7 1014.4 -
17/08:00pm 25.1 21.1 -2.5 16 12.6 NW 9 11 5 6 1017.5 1014.2 -
17/07:30pm 25.6 21.6 -2.1 16 12.8 NNW 9 13 5 7 1017.0 1013.7 -
17/07:00pm 26.6 22.5 -3.1 14 13.5 NNW 9 11 5 6 1016.3 1013.0 -
17/06:30pm 28.1 23.3 -2.9 13 14.4 NNW 13 15 7 8 1015.8 1012.5 -
17/06:00pm 29.6 23.4 -2.8 12 15.2 NNW 20 30 11 16 1015.5 1012.1 -
17/05:30pm 30.6 24.4 -3.2 11 15.9 N 20 32 11 17 1015.2 1011.8 -
17/05:00pm 31.4 25.1 -3.8 10 16.4 N 20 28 11 15 1014.8 1011.5 -
17/04:30pm 32.0 25.8 -3.4 10 16.7 NNW 20 37 11 20 1014.5 1011.2 -
17/04:00pm 31.2 24.1 -4.0 10 16.4 NW 24 35 13 19 1014.5 1011.2 -
17/03:30pm 33.0 26.5 -2.6 10 17.2 N 22 37 12 20 1014.4 1011.1 -
17/03:00pm 32.8 26.8 -2.8 10 17.1 NW 19 32 10 17 1014.3 1010.9 -
17/02:30pm 32.5 24.4 -3.0 10 16.9 N 30 41 16 22 1014.6 1011.3 -
17/02:00pm 33.0 27.1 -2.6 10 17.2 NNW 19 32 10 17 1014.7 1011.4 -
17/01:30pm 33.0 25.3 -2.6 10 17.2 NNW 28 41 15 22 1014.9 1011.6 -
17/01:00pm 32.3 24.6 -3.2 10 16.9 N 28 43 15 23 1015.6 1012.2 -
17/12:30pm 32.0 25.4 -3.4 10 16.7 N 22 35 12 19 1015.8 1012.5 -
17/12:00pm 32.2 25.6 -3.2 10 16.8 NNW 22 33 12 18 1016.2 1012.9 -
17/11:30am 31.3 25.9 -1.5 12 15.9 WNW 17 28 9 15 1016.5 1013.2 0.0
17/11:00am 30.7 25.2 -1.9 12 15.6 NW 17 28 9 15 1017.2 1013.9 0.0
17/10:30am 29.5 25.2 1.1 16 14.2 W 13 20 7 11 1017.5 1014.2 0.0
17/10:00am 28.3 24.7 0.9 17 13.6 W 9 22 5 12 1017.9 1014.6 0.0
17/09:30am 27.4 23.7 0.2 17 13.2 W 9 19 5 10 1018.3 1015.0 0.0
17/09:00am 26.2 22.2 2.8 22 11.8 SSW 13 17 7 9 1018.3 1015.0 0.0
17/08:30am 24.8 21.3 3.5 25 10.8 SW 11 17 6 9 1018.0 1014.7 0.0
17/08:00am 23.1 21.1 4.6 30 9.5 SSW 4 13 2 7 1017.8 1014.5 0.0
17/07:30am 20.9 19.4 3.2 31 8.7 CALM 0 0 0 0 1017.6 1014.3 0.0
17/07:00am 17.9 16.3 2.6 36 7.3 CALM 0 0 0 0 1017.2 1013.9 0.0
17/06:30am 14.8 11.8 1.0 39 6.2 E 6 7 3 4 1016.9 1013.5 0.0
17/06:00am 14.7 11.5 0.5 38 6.3 E 7 9 4 5 1016.5 1013.2 0.0
17/05:30am 14.1 11.4 0.0 38 6.2 E 4 7 2 4 1016.2 1012.9 0.0
17/05:00am 15.2 12.1 0.2 36 6.6 E 6 7 3 4 1015.9 1012.6 0.0
17/04:30am 15.8 12.4 -0.8 32 7.2 E 7 7 4 4 1015.6 1012.2 0.0
17/04:00am 15.4 12.9 -1.2 32 7.1 E 2 7 1 4 1015.4 1012.0 0.0
17/03:30am 16.8 14.8 -0.4 31 7.6 CALM 0 7 0 4 1015.4 1012.0 0.0
17/03:00am 17.7 14.2 -1.0 28 8.2 E 7 9 4 5 1015.6 1012.2 0.0
17/02:30am 19.0 14.9 -0.4 27 8.8 E 11 13 6 7 1015.4 1012.0 0.0
17/02:00am 18.3 14.4 -1.5 26 8.7 SSE 9 9 5 5 1015.5 1012.1 0.0
17/01:30am 18.1 15.5 -1.7 26 8.6 SW 2 9 1 5 1015.4 1012.0 0.0
17/01:00am 19.8 16.5 -1.3 24 9.4 SW 6 6 3 3 1015.7 1012.4 0.0
17/12:30am 22.0 18.7 -1.3 21 10.6 W 6 15 3 8 1015.8 1012.5 0.0
17/12:00am 23.3 19.8 -1.6 19 11.4 WNW 7 11 4 6 1015.9 1012.6 0.0
 
Date/Time
WST
Temp
°C
App
Temp
°C
Dew
Point
Rel
Hum
%
Delta-T
°C
Wind Press
QNH
hPa
Press
MSL
hPa
Rain
since 9 am
mm
Dir
 
Spd
km/h
Gust
km/h
Spd
kts
Gust
kts
16/11:30pm 24.2 19.5 -1.6 18 11.9 WNW 13 17 7 9 1015.9 1012.6 0.0
16/11:00pm 25.9 20.8 -1.8 16 12.9 NW 15 20 8 11 1015.9 1012.6 0.0
16/10:30pm 26.5 21.5 -1.3 16 13.1 NW 15 26 8 14 1016.0 1012.7 0.0
16/10:00pm 25.1 21.8 -0.1 19 12.0 NNW 7 11 4 6 1016.1 1012.8 0.0
16/09:30pm 26.0 21.9 -0.1 18 12.5 N 11 15 6 8 1015.7 1012.4 0.0
16/09:00pm 26.2 22.0 -0.8 17 12.8 NNW 11 13 6 7 1015.5 1012.1 0.0
16/08:30pm 27.3 22.6 -1.6 15 13.6 N 13 19 7 10 1015.2 1011.8 0.0
16/08:00pm 27.7 22.7 -1.3 15 13.8 N 15 19 8 10 1014.8 1011.5 0.0
16/07:30pm 28.2 23.5 -1.8 14 14.2 N 13 19 7 10 1014.5 1011.2 0.0
16/07:00pm 28.8 24.0 -2.3 13 14.6 N 13 19 7 10 1014.1 1010.7 0.0
16/06:30pm 29.8 24.2 -2.6 12 15.3 N 17 20 9 11 1013.7 1010.3 0.0
16/06:00pm 30.2 24.7 -2.3 12 15.5 N 17 22 9 12 1013.3 1010.0 0.0
16/05:30pm 30.8 25.9 -3.0 11 15.9 N 13 19 7 10 1013.0 1009.6 0.0
16/05:00pm 31.6 25.5 -2.4 11 16.3 NNW 20 30 11 16 1012.9 1009.5 0.0
16/04:30pm 32.1 25.1 -3.3 10 16.8 N 24 30 13 16 1012.7 1009.3 0.0
16/04:00pm 32.1 26.1 -3.3 10 16.8 NNW 19 33 10 18 1012.7 1009.3 0.0
16/03:30pm 33.1 27.5 -2.6 10 17.2 N 17 26 9 14 1012.5 1009.1 0.0
16/03:00pm 33.9 27.8 -2.0 10 17.6 N 20 28 11 15 1012.5 1009.1 0.0
16/02:30pm 33.5 28.0 -2.3 10 17.4 NW 17 30 9 16 1012.7 1009.3 0.0
16/02:00pm 33.4 26.5 -2.3 10 17.4 N 24 39 13 21 1013.0 1009.6 0.0
16/01:30pm 33.2 27.1 -2.5 10 17.3 N 20 35 11 19 1013.3 1010.0 0.0
16/01:00pm 32.3 25.5 -1.9 11 16.6 NW 24 35 13 19 1013.9 1010.5 0.0
16/12:30pm 32.9 26.5 -1.4 11 16.9 N 22 35 12 19 1014.3 1010.9 0.0
16/12:00pm 33.0 27.6 -1.4 11 16.9 N 17 37 9 20 1014.9 1011.6 0.0
16/11:30am 31.6 26.2 -1.2 12 16.0 NNE 17 32 9 17 1015.3 1011.9 0.0
16/11:00am 30.5 26.7 -1.0 13 15.3 WSW 9 11 5 6 1015.7 1012.4 0.0
16/10:30am 29.3 25.6 0.0 15 14.4 SSW 9 15 5 8 1016.0 1012.7 0.0
16/10:00am 28.2 23.7 0.0 16 13.7 WSW 13 20 7 11 1016.3 1013.0 0.0
16/09:30am 27.6 22.6 1.2 18 13.1 SW 17 20 9 11 1016.7 1013.3 0.0
16/09:00am 26.4 21.5 1.7 20 12.3 WSW 17 24 9 13 1016.8 1013.4 0.0
16/08:30am 25.2 20.7 2.0 22 11.5 WSW 15 26 8 14 1016.9 1013.5 0.0
16/08:00am 23.1 20.0 1.4 24 10.5 WSW 7 9 4 5 1016.8 1013.4 0.0
16/07:30am 21.2 19.0 1.0 26 9.5 N 2 6 1 3 1016.4 1013.1 0.0
16/07:00am 19.2 17.0 0.8 29 8.5 N 2 7 1 4 1016.1 1012.8 0.0
16/06:30am 17.1 13.9 0.7 33 7.5 NNW 7 9 4 5 1015.8 1012.5 0.0
16/06:00am 16.8 13.6 0.9 34 7.2 NNW 7 9 4 5 1015.6 1012.2 0.0
16/05:30am 16.6 13.6 0.7 34 7.2 NNW 6 7 3 4 1015.3 1011.9 0.0
16/05:00am 17.2 15.0 1.2 34 7.4 NNW 2 6 1 3 1014.9 1011.6 0.0
16/04:30am 18.2 15.2 0.8 31 8.0 NNW 6 7 3 4 1014.5 1011.2 0.0
16/04:00am 19.3 17.5 1.3 30 8.4 CALM 0 4 0 2 1014.3 1010.9 0.0
16/03:30am 20.1 16.3 1.5 29 8.8 NNW 11 13 6 7 1014.2 1010.8 0.0
16/03:00am 20.4 17.4 2.3 30 8.7 WNW 7 9 4 5 1014.2 1010.8 0.0
16/02:30am 20.3 17.4 2.6 31 8.6 WNW 7 11 4 6 1014.3 1010.9 0.0
16/02:00am 21.2 19.6 2.5 29 9.1 CALM 0 2 0 1 1014.3 1010.9 0.0
16/01:30am 23.5 20.7 2.9 26 10.3 N 7 9 4 5 1014.5 1011.2 0.0
16/01:00am 23.2 20.6 3.2 27 10.0 WSW 6 9 3 5 1014.8 1011.5 0.0
16/12:30am 24.4 20.8 3.1 25 10.7 N 11 15 6 8 1015.0 1011.7 0.0
16/12:00am 24.9 21.8 3.5 25 10.9 N 9 15 5 8 1015.5 1012.1 0.0
 
Date/Time
WST
Temp
°C
App
Temp
°C
Dew
Point
Rel
Hum
%
Delta-T
°C
Wind Press
QNH
hPa
Press
MSL
hPa
Rain
since 9 am
mm
Dir
 
Spd
km/h
Gust
km/h
Spd
kts
Gust
kts
15/11:30pm 25.6 22.5 3.5 24 11.3 NNW 9 13 5 7 1015.8 1012.5 0.0
15/11:00pm 25.6 21.9 6.3 29 10.3 NNW 15 20 8 11 1015.8 1012.5 0.0
15/10:30pm 25.9 22.9 6.0 28 10.6 NNW 11 15 6 8 1015.9 1012.6 0.0
15/10:00pm 26.6 23.1 5.5 26 11.2 N 13 20 7 11 1016.0 1012.7 0.0

Other Formats:

Comma delimited format used in spreadsheet applications
http://www.bom.gov.au/fwo/IDW60801/IDW60801.99312.axf

JavaScript Object Notation format (JSON) in row-major order
http://www.bom.gov.au/fwo/IDW60801/IDW60801.99312.json